createdAt,value
2023-07-10T00:01:01.462Z,102089.78
2023-07-10T00:03:29.847Z,102096.28
2023-07-10T00:05:57.599Z,102115.47
2023-07-10T00:08:24.193Z,102111.25
2023-07-10T00:10:51.509Z,102118.44
2023-07-10T00:13:25.049Z,102114.94
2023-07-10T00:15:53.538Z,102115.50
2023-07-10T00:18:25.124Z,102115.03
2023-07-10T00:20:51.696Z,102107.03
2023-07-10T00:23:19.335Z,102098.59
2023-07-10T00:25:46.152Z,102096.06
2023-07-10T00:28:15.835Z,102098.31
2023-07-10T00:30:42.564Z,102103.88
2023-07-10T00:33:11.996Z,102101.47
2023-07-10T00:35:39.108Z,102111.41
2023-07-10T00:38:32.545Z,102112.53
2023-07-10T00:41:01.715Z,102115.75
2023-07-10T00:43:42.699Z,102109.63
2023-07-10T00:46:30.508Z,102097.59
2023-07-10T00:49:10.272Z,102108.72
2023-07-10T00:51:45.706Z,102105.94
2023-07-10T00:54:34.208Z,102097.22
2023-07-10T00:57:06.627Z,102096.34
2023-07-10T00:59:39.462Z,102095.53
2023-07-10T01:02:09.099Z,102101.03
2023-07-10T01:04:41.083Z,102099.56
2023-07-10T01:07:16.130Z,102098.75
2023-07-10T01:09:45.741Z,102097.59
2023-07-10T01:12:12.745Z,102101.53
2023-07-10T01:14:39.210Z,102099.88
2023-07-10T01:17:08.022Z,102090.69
2023-07-10T01:19:36.418Z,102090.25
2023-07-10T01:22:04.343Z,102087.38
2023-07-10T01:24:31.228Z,102094.81
2023-07-10T01:26:58.667Z,102096.78
2023-07-10T01:29:36.403Z,102089.50
2023-07-10T01:32:04.041Z,102088.25
2023-07-10T01:34:50.862Z,102079.53
2023-07-10T01:37:18.182Z,102078.09
2023-07-10T01:39:51.618Z,102091.44
2023-07-10T01:42:18.492Z,102087.19
2023-07-10T01:44:47.200Z,102098.94
2023-07-10T01:47:15.558Z,102108.09
2023-07-10T01:49:50.001Z,102110.75
2023-07-10T01:52:19.966Z,102115.31
2023-07-10T01:54:49.418Z,102111.38
2023-07-10T01:57:18.024Z,102100.94
2023-07-10T01:59:44.998Z,102096.19
2023-07-10T02:02:13.202Z,102102.28
2023-07-10T02:04:39.895Z,102106.81
2023-07-10T02:07:06.588Z,102102.78
2023-07-10T02:09:33.673Z,102098.38
2023-07-10T02:12:01.465Z,102104.97
2023-07-10T02:14:29.590Z,102105.56
2023-07-10T02:16:56.641Z,102100.00
2023-07-10T02:19:23.213Z,102109.06
2023-07-10T02:21:49.781Z,102106.28
2023-07-10T02:24:17.321Z,102106.09
2023-07-10T02:26:43.918Z,102106.22
2023-07-10T02:29:10.518Z,102111.78
2023-07-10T02:31:37.499Z,102110.59
2023-07-10T02:34:04.220Z,102109.34
2023-07-10T02:36:30.990Z,102104.81
2023-07-10T02:38:57.771Z,102108.75
2023-07-10T02:41:24.844Z,102091.63
2023-07-10T02:43:51.781Z,102105.03
2023-07-10T02:46:18.498Z,102107.34
2023-07-10T02:48:45.277Z,102107.81
2023-07-10T02:51:11.783Z,102104.72
2023-07-10T02:53:38.955Z,102105.84
2023-07-10T02:56:05.751Z,102106.19
2023-07-10T02:58:32.586Z,102115.13
2023-07-10T03:01:01.054Z,102120.22
2023-07-10T03:03:28.492Z,102114.91
2023-07-10T03:05:57.067Z,102123.13
2023-07-10T03:08:24.290Z,102118.72
2023-07-10T03:10:59.775Z,102123.34
2023-07-10T03:13:26.498Z,102128.44
2023-07-10T03:16:05.704Z,102119.28
2023-07-10T03:18:36.471Z,102119.66
2023-07-10T03:21:03.315Z,102126.56
2023-07-10T03:23:30.429Z,102125.66
2023-07-10T03:25:57.254Z,102116.06
2023-07-10T03:28:23.966Z,102129.84
2023-07-10T03:30:50.973Z,102129.13
2023-07-10T03:33:18.906Z,102136.97
2023-07-10T03:35:49.749Z,102140.91
2023-07-10T03:38:17.443Z,102139.97
2023-07-10T03:40:51.660Z,102140.66
2023-07-10T03:43:18.421Z,102147.84
2023-07-10T03:45:44.926Z,102149.69
2023-07-10T03:48:11.720Z,102145.28
2023-07-10T03:50:38.492Z,102140.88
2023-07-10T03:53:05.094Z,102144.81
2023-07-10T03:55:31.633Z,102155.44
2023-07-10T03:57:58.177Z,102161.00
2023-07-10T04:00:24.713Z,102156.25
2023-07-10T04:02:51.456Z,102158.59
2023-07-10T04:05:18.268Z,102161.00
2023-07-10T04:07:44.809Z,102159.41
2023-07-10T04:10:12.481Z,102159.50
2023-07-10T04:12:41.948Z,102157.88
2023-07-10T04:15:08.966Z,102162.19
2023-07-10T04:17:36.463Z,102164.25
2023-07-10T04:20:04.405Z,102164.94
2023-07-10T04:22:30.924Z,102174.19
2023-07-10T04:25:05.301Z,102172.00
2023-07-10T04:27:32.617Z,102174.44
2023-07-10T04:30:00.142Z,102177.34
2023-07-10T04:32:26.897Z,102178.16
2023-07-10T04:34:53.523Z,102183.25
2023-07-10T04:37:20.116Z,102181.16
2023-07-10T04:39:46.585Z,102183.09
2023-07-10T04:42:13.108Z,102182.97
2023-07-10T04:44:39.650Z,102175.94
2023-07-10T04:47:07.930Z,102182.31
2023-07-10T04:49:34.563Z,102177.22
2023-07-10T04:52:01.090Z,102180.47
2023-07-10T04:54:27.587Z,102175.38
2023-07-10T04:56:54.264Z,102171.44
2023-07-10T04:59:20.953Z,102171.44
2023-07-10T05:01:47.465Z,102182.69
2023-07-10T05:04:14.098Z,102171.91
2023-07-10T05:06:40.881Z,102173.06
2023-07-10T05:09:07.456Z,102175.84
2023-07-10T05:11:34.015Z,102187.41
2023-07-10T05:14:00.995Z,102179.22
2023-07-10T05:16:27.693Z,102180.28
2023-07-10T05:18:56.334Z,102184.66
2023-07-10T05:21:22.931Z,102188.38
2023-07-10T05:23:50.449Z,102186.91
2023-07-10T05:26:18.092Z,102187.84
2023-07-10T05:28:45.508Z,102179.13
2023-07-10T05:31:13.328Z,102171.13
2023-07-10T05:33:41.104Z,102178.22
2023-07-10T05:36:12.027Z,102172.53
2023-07-10T05:38:39.447Z,102186.94
2023-07-10T05:41:06.654Z,102183.41
2023-07-10T05:43:34.757Z,102182.53
2023-07-10T05:46:02.212Z,102186.81
2023-07-10T05:48:29.854Z,102192.84
2023-07-10T05:50:57.688Z,102187.38
2023-07-10T05:53:24.734Z,102185.78
2023-07-10T05:55:53.718Z,102192.75
2023-07-10T05:58:24.018Z,102192.75
2023-07-10T06:00:53.660Z,102187.75
2023-07-10T06:03:20.145Z,102184.00
2023-07-10T06:05:56.672Z,102182.97
2023-07-10T06:08:24.693Z,102181.41
2023-07-10T06:10:51.557Z,102185.31
2023-07-10T06:13:18.430Z,102188.16
2023-07-10T06:15:47.584Z,102185.75
2023-07-10T06:18:16.455Z,102184.81
2023-07-10T06:20:44.674Z,102192.47
2023-07-10T06:23:11.246Z,102190.94
2023-07-10T06:25:42.520Z,102192.38
2023-07-10T06:28:09.038Z,102199.69
2023-07-10T06:30:40.145Z,102205.16
2023-07-10T06:33:06.705Z,102213.31
2023-07-10T06:35:33.333Z,102210.19
2023-07-10T06:38:01.933Z,102206.78
2023-07-10T06:40:28.487Z,102205.47
2023-07-10T06:42:55.114Z,102205.03
2023-07-10T06:45:22.872Z,102202.22
2023-07-10T06:47:49.568Z,102211.81
2023-07-10T06:50:16.324Z,102209.69
2023-07-10T06:52:44.282Z,102214.63
2023-07-10T06:55:18.629Z,102209.03
2023-07-10T06:57:45.784Z,102217.84
2023-07-10T07:00:18.000Z,102233.03
2023-07-10T07:02:44.950Z,102223.03
2023-07-10T07:05:13.106Z,102230.69
2023-07-10T07:07:42.494Z,102231.59
2023-07-10T07:10:16.048Z,102227.94
2023-07-10T07:12:44.129Z,102229.53
2023-07-10T07:15:12.746Z,102242.03
2023-07-10T07:17:39.854Z,102242.41
2023-07-10T07:20:08.474Z,102236.38
2023-07-10T07:22:35.122Z,102240.81
2023-07-10T07:25:02.033Z,102235.59
2023-07-10T07:27:32.692Z,102229.13
2023-07-10T07:29:59.368Z,102229.00
2023-07-10T07:32:25.978Z,102230.63
2023-07-10T07:34:52.787Z,102240.97
2023-07-10T07:37:19.494Z,102237.69
2023-07-10T07:39:46.168Z,102234.78
2023-07-10T07:42:12.771Z,102237.28
2023-07-10T07:44:39.436Z,102232.03
2023-07-10T07:47:06.386Z,102247.09
2023-07-10T07:49:32.980Z,102243.41
2023-07-10T07:51:59.628Z,102247.88
2023-07-10T07:54:26.161Z,102245.75
2023-07-10T07:56:52.796Z,102249.84
2023-07-10T07:59:20.063Z,102256.41
2023-07-10T08:01:49.538Z,102248.19
2023-07-10T08:04:17.066Z,102233.47
2023-07-10T08:06:44.583Z,102245.59
2023-07-10T08:09:12.678Z,102236.28
2023-07-10T08:11:39.192Z,102230.94
2023-07-10T08:14:05.811Z,102230.81
2023-07-10T08:16:32.462Z,102237.09
2023-07-10T08:18:59.019Z,102230.53
2023-07-10T08:21:25.961Z,102234.88
2023-07-10T08:23:52.616Z,102230.31
2023-07-10T08:26:19.199Z,102227.13
2023-07-10T08:28:45.828Z,102222.59
2023-07-10T08:31:12.430Z,102219.53
2023-07-10T08:33:40.040Z,102220.22
2023-07-10T08:36:07.953Z,102222.16
2023-07-10T08:38:37.207Z,102220.06
2023-07-10T08:41:13.584Z,102214.78
2023-07-10T08:43:42.093Z,102220.22
2023-07-10T08:46:16.854Z,102223.72
2023-07-10T08:49:25.345Z,102227.63
2023-07-10T08:52:04.134Z,102235.19
2023-07-10T08:54:30.956Z,102235.94
2023-07-10T08:57:23.740Z,102230.44
2023-07-10T08:59:57.349Z,102232.41
2023-07-10T09:02:37.972Z,102231.63
2023-07-10T09:05:12.436Z,102223.94
2023-07-10T09:07:43.472Z,102239.47
2023-07-10T09:10:19.343Z,102227.13
2023-07-10T09:12:58.337Z,102236.03
2023-07-10T09:15:30.165Z,102239.25
2023-07-10T09:18:05.723Z,102242.75
2023-07-10T09:20:32.387Z,102252.78
2023-07-10T09:23:02.073Z,102247.88
2023-07-10T09:25:29.337Z,102234.97
2023-07-10T09:27:57.172Z,102236.59
2023-07-10T09:30:27.326Z,102234.09
2023-07-10T09:33:01.428Z,102246.31
2023-07-10T09:35:28.526Z,102248.69
2023-07-10T09:37:55.181Z,102246.50
2023-07-10T09:40:45.609Z,102242.41
2023-07-10T09:43:21.234Z,102252.50
2023-07-10T09:45:50.643Z,102259.78
2023-07-10T09:48:24.552Z,102256.53
2023-07-10T09:50:55.472Z,102247.81
2023-07-10T09:53:33.845Z,102243.66
2023-07-10T09:56:01.008Z,102241.22
2023-07-10T09:58:27.550Z,102236.75
2023-07-10T10:00:57.499Z,102240.94
2023-07-10T10:03:33.012Z,102243.59
2023-07-10T10:06:02.917Z,102245.38
2023-07-10T10:08:33.900Z,102242.44
2023-07-10T10:11:09.306Z,102232.53
2023-07-10T10:13:42.065Z,102231.31
2023-07-10T10:16:37.511Z,102222.38
2023-07-10T10:19:23.733Z,102231.25
2023-07-10T10:21:50.384Z,102222.13
2023-07-10T10:24:17.889Z,102231.16
2023-07-10T10:26:56.126Z,102234.00
2023-07-10T10:29:41.149Z,102224.31
2023-07-10T10:32:32.786Z,102225.78
2023-07-10T10:35:32.626Z,102234.28
2023-07-10T10:38:36.968Z,102239.63
2023-07-10T10:41:19.596Z,102233.31
2023-07-10T10:44:01.106Z,102220.63
2023-07-10T10:46:33.411Z,102227.44
2023-07-10T10:49:25.111Z,102233.00
2023-07-10T10:52:23.382Z,102231.78
2023-07-10T10:54:49.868Z,102236.00
2023-07-10T10:57:16.288Z,102239.56
2023-07-10T11:00:02.610Z,102240.09
2023-07-10T11:02:50.144Z,102235.63
2023-07-10T11:05:26.305Z,102241.78
2023-07-10T11:07:58.405Z,102243.81
2023-07-10T11:10:41.201Z,102233.63
2023-07-10T11:13:24.718Z,102234.69
2023-07-10T11:15:52.752Z,102235.03
2023-07-10T11:18:20.352Z,102229.34
2023-07-10T11:20:47.425Z,102226.50
2023-07-10T11:23:42.079Z,102222.94
2023-07-10T11:26:14.118Z,102227.06
2023-07-10T11:29:08.475Z,102228.69
2023-07-10T11:31:38.012Z,102223.47
2023-07-10T11:34:07.775Z,102235.13
2023-07-10T11:36:34.175Z,102230.78
2023-07-10T11:39:15.237Z,102226.66
2023-07-10T11:41:44.748Z,102219.63
2023-07-10T11:44:32.418Z,102227.91
2023-07-10T11:47:01.786Z,102225.75
2023-07-10T11:49:43.317Z,102222.66
2023-07-10T11:52:15.888Z,102233.22
2023-07-10T11:54:42.450Z,102220.59
2023-07-10T11:57:09.531Z,102218.28
2023-07-10T12:00:00.029Z,102217.44
2023-07-10T12:02:38.276Z,102215.63
2023-07-10T12:05:20.376Z,102215.41
2023-07-10T12:08:12.010Z,102209.00
2023-07-10T12:10:51.570Z,102205.06
2023-07-10T12:13:25.062Z,102211.53
2023-07-10T12:16:01.968Z,102191.84
2023-07-10T12:18:34.393Z,102208.03
2023-07-10T12:21:04.473Z,102204.22
2023-07-10T12:23:31.072Z,102208.88
2023-07-10T12:25:59.683Z,102203.59
2023-07-10T12:28:29.288Z,102203.28
2023-07-10T12:30:59.916Z,102212.72
2023-07-10T12:33:41.637Z,102199.94
2023-07-10T12:36:30.750Z,102198.22
2023-07-10T12:38:59.900Z,102207.50
2023-07-10T12:41:27.217Z,102210.94
2023-07-10T12:43:58.658Z,102202.94
2023-07-10T12:46:29.259Z,102203.59
2023-07-10T12:49:14.694Z,102184.28
2023-07-10T12:51:45.715Z,102199.16
2023-07-10T12:54:23.845Z,102188.81
2023-07-10T12:56:53.563Z,102188.00
2023-07-10T12:59:28.082Z,102193.56
2023-07-10T13:02:05.820Z,102191.81
2023-07-10T13:04:38.644Z,102185.97
2023-07-10T13:07:30.481Z,102199.94
2023-07-10T13:10:25.584Z,102181.72
2023-07-10T13:12:57.558Z,102184.69
2023-07-10T13:15:34.514Z,102188.84
2023-07-10T13:18:01.826Z,102177.41
2023-07-10T13:20:30.855Z,102184.44
2023-07-10T13:22:59.840Z,102183.00
2023-07-10T13:25:33.088Z,102176.13
2023-07-10T13:27:59.943Z,102189.66
2023-07-10T13:30:29.095Z,102174.94
2023-07-10T13:32:55.826Z,102180.59
2023-07-10T13:35:22.592Z,102178.88
2023-07-10T13:37:49.358Z,102169.63
2023-07-10T13:40:22.486Z,102172.91
2023-07-10T13:42:50.503Z,102171.19
2023-07-10T13:45:17.054Z,102180.31
2023-07-10T13:47:43.673Z,102176.06
2023-07-10T13:50:16.779Z,102171.50
2023-07-10T13:52:43.403Z,102167.47
2023-07-10T13:55:15.165Z,102167.84
2023-07-10T13:57:42.079Z,102160.34
2023-07-10T14:00:14.007Z,102175.78
2023-07-10T14:02:41.275Z,102172.94
2023-07-10T14:05:17.705Z,102175.78
2023-07-10T14:07:44.722Z,102169.34
2023-07-10T14:10:18.978Z,102169.72
2023-07-10T14:12:46.901Z,102168.47
2023-07-10T14:15:17.047Z,102168.44
2023-07-10T14:17:44.104Z,102155.56
2023-07-10T14:20:23.266Z,102154.56
2023-07-10T14:22:49.894Z,102149.31
2023-07-10T14:25:19.722Z,102148.75
2023-07-10T14:27:46.534Z,102150.97
2023-07-10T14:30:21.298Z,102153.56
2023-07-10T14:32:48.633Z,102145.00
2023-07-10T14:35:18.331Z,102137.88
2023-07-10T14:37:46.167Z,102137.75
2023-07-10T14:40:16.027Z,102143.19
2023-07-10T14:42:42.986Z,102136.59
2023-07-10T14:45:17.325Z,102139.22
2023-07-10T14:47:45.628Z,102131.31
2023-07-10T14:50:13.257Z,102134.16
2023-07-10T14:52:42.436Z,102142.63
2023-07-10T14:55:17.645Z,102147.72
2023-07-10T14:57:44.417Z,102137.72
2023-07-10T15:00:17.025Z,102140.59
2023-07-10T15:02:43.679Z,102141.13
2023-07-10T15:05:10.311Z,102128.69
2023-07-10T15:07:39.117Z,102128.06
2023-07-10T15:10:25.349Z,102124.09
2023-07-10T15:12:53.476Z,102127.38
2023-07-10T15:15:20.243Z,102130.09
2023-07-10T15:17:47.908Z,102120.28
2023-07-10T15:20:19.865Z,102123.22
2023-07-10T15:22:47.509Z,102117.59
2023-07-10T15:25:22.782Z,102110.69
2023-07-10T15:27:51.240Z,102110.28
2023-07-10T15:30:21.289Z,102107.75
2023-07-10T15:32:50.538Z,102098.75
2023-07-10T15:35:19.936Z,102083.38
2023-07-10T15:37:49.205Z,102091.56
2023-07-10T15:40:21.971Z,102091.53
2023-07-10T15:42:50.978Z,102076.13
2023-07-10T15:45:19.611Z,102075.53
2023-07-10T15:47:48.883Z,102082.09
2023-07-10T15:50:17.379Z,102086.13
2023-07-10T15:52:47.947Z,102082.88
2023-07-10T15:55:19.564Z,102084.22
2023-07-10T15:57:50.439Z,102086.25
2023-07-10T16:00:25.518Z,102076.69
2023-07-10T16:02:55.776Z,102071.63
2023-07-10T16:05:28.959Z,102064.03
2023-07-10T16:07:56.719Z,102068.88
2023-07-10T16:10:24.698Z,102075.84
2023-07-10T16:12:53.526Z,102063.47
2023-07-10T16:15:22.674Z,102062.06
2023-07-10T16:17:51.052Z,102061.34
2023-07-10T16:20:26.302Z,102058.31
2023-07-10T16:23:03.765Z,102052.34
2023-07-10T16:25:30.527Z,102044.72
2023-07-10T16:27:57.515Z,102064.81
2023-07-10T16:30:26.741Z,102048.03
2023-07-10T16:32:56.084Z,102050.06
2023-07-10T16:35:24.580Z,102041.59
2023-07-10T16:37:55.569Z,102039.97
2023-07-10T16:40:24.521Z,102032.75
2023-07-10T16:42:54.669Z,102033.06
2023-07-10T16:45:31.650Z,102034.72
2023-07-10T16:47:58.961Z,102036.38
2023-07-10T16:50:25.886Z,102032.34
2023-07-10T16:52:52.617Z,102031.13
2023-07-10T16:55:24.644Z,102019.06
2023-07-10T16:57:53.942Z,102025.53
2023-07-10T17:00:29.194Z,102030.38
2023-07-10T17:02:58.673Z,102022.75
2023-07-10T17:05:25.265Z,102010.19
2023-07-10T17:07:51.855Z,102004.63
2023-07-10T17:10:19.003Z,102017.50
2023-07-10T17:12:49.207Z,102014.31
2023-07-10T17:15:18.320Z,102013.53
2023-07-10T17:17:45.266Z,102003.50
2023-07-10T17:20:16.466Z,102015.94
2023-07-10T17:22:43.502Z,102008.34
2023-07-10T17:25:16.378Z,102018.38
2023-07-10T17:27:44.126Z,102003.88
2023-07-10T17:30:15.344Z,101999.09
2023-07-10T17:32:42.425Z,101995.91
2023-07-10T17:35:20.538Z,102004.72
2023-07-10T17:37:51.196Z,102001.50
2023-07-10T17:40:18.216Z,101999.56
2023-07-10T17:42:45.791Z,102002.34
2023-07-10T17:45:20.507Z,101997.56
2023-07-10T17:47:48.108Z,101996.84
2023-07-10T17:50:16.640Z,101992.81
2023-07-10T17:52:46.149Z,101994.84
2023-07-10T17:55:21.343Z,101994.41
2023-07-10T17:57:49.254Z,101988.38
2023-07-10T18:00:17.573Z,101990.41
2023-07-10T18:02:46.736Z,101991.19
2023-07-10T18:05:19.753Z,101990.41
2023-07-10T18:07:46.736Z,101988.78
2023-07-10T18:10:13.852Z,101994.78
2023-07-10T18:12:41.511Z,101985.59
2023-07-10T18:15:16.599Z,101985.56
2023-07-10T18:17:44.898Z,101992.03
2023-07-10T18:20:13.567Z,101986.38
2023-07-10T18:22:42.280Z,101988.00
2023-07-10T18:25:17.766Z,101980.41
2023-07-10T18:27:46.662Z,101983.63
2023-07-10T18:30:17.854Z,101982.06
2023-07-10T18:32:45.217Z,101980.06
2023-07-10T18:35:17.227Z,101985.72
2023-07-10T18:37:44.007Z,101976.09
2023-07-10T18:40:11.392Z,101967.66
2023-07-10T18:42:38.188Z,101971.69
2023-07-10T18:45:18.662Z,101972.47
2023-07-10T18:47:45.420Z,101969.66
2023-07-10T18:50:16.266Z,101968.88
2023-07-10T18:52:43.746Z,101967.25
2023-07-10T18:55:20.092Z,101961.22
2023-07-10T18:57:48.685Z,101962.81
2023-07-10T19:00:23.812Z,101971.25
2023-07-10T19:02:54.488Z,101956.03
2023-07-10T19:05:21.276Z,101960.03
2023-07-10T19:07:48.021Z,101960.00
2023-07-10T19:10:17.261Z,101955.22
2023-07-10T19:12:43.896Z,101954.00
2023-07-10T19:15:10.861Z,101952.78
2023-07-10T19:17:38.462Z,101960.38
2023-07-10T19:23:33.477Z,101935.88
2023-07-10T19:25:59.963Z,101935.88
2023-07-10T19:28:31.237Z,101931.84
2023-07-10T19:31:00.582Z,101931.84
2023-07-10T19:33:33.872Z,101928.19
2023-07-10T19:36:01.053Z,101927.81
2023-07-10T19:38:31.898Z,101935.00
2023-07-10T19:41:01.298Z,101930.13
2023-07-10T19:43:27.891Z,101935.72
2023-07-10T19:45:57.465Z,101935.31
2023-07-10T19:48:29.326Z,101939.19
2023-07-10T19:50:55.863Z,101929.16
2023-07-10T19:53:31.576Z,101935.94
2023-07-10T19:56:01.179Z,101927.13
2023-07-10T19:58:33.042Z,101929.06
2023-07-10T20:01:00.427Z,101925.81
2023-07-10T20:03:35.086Z,101930.56
2023-07-10T20:06:04.832Z,101926.53
2023-07-10T20:08:35.206Z,101924.91
2023-07-10T20:11:07.670Z,101924.91
2023-07-10T20:13:35.705Z,101916.09
2023-07-10T20:16:06.092Z,101921.72
2023-07-10T20:18:36.040Z,101920.03
2023-07-10T20:21:03.815Z,101913.94
2023-07-10T20:23:31.125Z,101911.03
2023-07-10T20:26:01.479Z,101900.66
2023-07-10T20:28:34.276Z,101900.16
2023-07-10T20:31:00.838Z,101896.53
2023-07-10T20:33:31.219Z,101903.31
2023-07-10T20:36:01.550Z,101901.28
2023-07-10T20:38:40.366Z,101889.63
2023-07-10T20:41:12.274Z,101893.25
2023-07-10T20:43:41.075Z,101896.38
2023-07-10T20:46:23.557Z,101884.75
2023-07-10T20:48:51.825Z,101894.72
2023-07-10T20:51:24.841Z,101892.59
2023-07-10T20:53:52.580Z,101892.13
2023-07-10T20:56:27.546Z,101890.91
2023-07-10T20:58:55.556Z,101889.75
2023-07-10T21:01:32.374Z,101880.94
2023-07-10T21:03:59.198Z,101886.53
2023-07-10T21:06:34.277Z,101879.66
2023-07-10T21:09:11.846Z,101875.19
2023-07-10T21:11:38.358Z,101876.81
2023-07-10T21:14:10.518Z,101865.59
2023-07-10T21:16:37.559Z,101868.75
2023-07-10T21:19:20.207Z,101871.97
2023-07-10T21:21:47.385Z,101868.75
2023-07-10T21:24:20.632Z,101867.88
2023-07-10T21:26:51.497Z,101863.38
2023-07-10T21:29:18.277Z,101860.91
2023-07-10T21:31:44.978Z,101864.84
2023-07-10T21:34:14.204Z,101862.00
2023-07-10T21:36:41.969Z,101860.84
2023-07-10T21:39:09.157Z,101860.75
2023-07-10T21:41:42.816Z,101858.72
2023-07-10T21:44:23.383Z,101860.22
2023-07-10T21:46:51.138Z,101858.53
2023-07-10T21:49:17.968Z,101859.31
2023-07-10T21:51:45.538Z,101855.19
2023-07-10T21:54:12.877Z,101845.53
2023-07-10T21:56:42.742Z,101845.53
2023-07-10T21:59:18.651Z,101850.66
2023-07-10T22:01:45.256Z,101845.38
2023-07-10T22:04:12.263Z,101841.72
2023-07-10T22:06:44.518Z,101843.59
2023-07-10T22:09:12.938Z,101834.84
2023-07-10T22:11:42.056Z,101845.91
2023-07-10T22:14:17.911Z,101832.28
2023-07-10T22:16:45.660Z,101841.72
2023-07-10T22:19:13.308Z,101842.47
2023-07-10T22:21:41.346Z,101837.94
2023-07-10T22:24:16.020Z,101824.78
2023-07-10T22:26:42.560Z,101826.72
2023-07-10T22:29:09.247Z,101827.88
2023-07-10T22:31:35.834Z,101823.47
2023-07-10T22:34:02.542Z,101827.81
2023-07-10T22:36:29.159Z,101822.19
2023-07-10T22:38:55.661Z,101822.03
2023-07-10T22:41:26.722Z,101819.16
2023-07-10T22:43:59.983Z,101818.59
2023-07-10T22:46:33.807Z,101826.41
2023-07-10T22:49:02.901Z,101814.38
2023-07-10T22:51:31.269Z,101814.31
2023-07-10T22:53:58.988Z,101814.09
2023-07-10T22:56:28.680Z,101807.88
2023-07-10T22:58:55.489Z,101802.06
2023-07-10T23:01:23.006Z,101806.03
2023-07-10T23:03:52.605Z,101807.19
2023-07-10T23:06:24.726Z,101795.44
2023-07-10T23:08:52.672Z,101797.78
2023-07-10T23:11:19.596Z,101791.78
2023-07-10T23:13:46.463Z,101790.59
2023-07-10T23:16:15.819Z,101786.06
2023-07-10T23:18:52.632Z,101782.00
2023-07-10T23:21:20.364Z,101787.13
2023-07-10T23:23:47.510Z,101785.81
2023-07-10T23:26:15.902Z,101780.59
2023-07-10T23:28:42.654Z,101781.41
2023-07-10T23:31:19.322Z,101781.41
2023-07-10T23:33:45.969Z,101783.03
2023-07-10T23:36:12.752Z,101781.41
2023-07-10T23:38:39.681Z,101775.75
2023-07-10T23:41:06.273Z,101780.38
2023-07-10T23:43:33.131Z,101775.47
2023-07-10T23:45:59.720Z,101776.88
2023-07-10T23:48:26.432Z,101771.75
2023-07-10T23:50:55.713Z,101767.81
2023-07-10T23:53:25.795Z,101767.81
2023-07-10T23:55:53.434Z,101755.50
2023-07-10T23:58:19.986Z,101757.47
